East Moriches, New York
Current Conditions -  °F | °C
As of 4:56 PM on Friday 19 Dec 2014 (Local Time) from KHWV Reporting Station
Overcast Overcast  
Wind Chill: 29°   Ceiling: 3600
Heat Index: 37°   Visibility: 10mi
Dew Point: 23°   Wind: 13mph
Humidity: 57%   Direction: 340°NNW
Pressure: 30.05"   Gusts: NA
Location:  40.81°N, 72.76°W
Report Text: KHWV 192156Z AUTO 34011KT 10SM OVC036 03/M05 A3005 RMK AO2 SLP177 T00281050 TSNO
Loading
Personal Weather Stations






























Interactive Weather Map New forecast layout! Learn more

10-Day Weather Forecast

Advertisements
Track Severe Weather on mobile